John F Kennedy International Airport
KJFK : now visible

Airfield :











YOU CAN JOIN US ON...

 
LOGIN :

Register | Disclaimer

   EN    FR    IT 

 









Legend :    VFR   Marginal VFR   IFR   Intensive IFR   Very Intensive IFR
Visi :
Ceiling :
>= 8 km
>= 3000ft
5 to 8 km
1000 to 3000 ft
1500m to 5 km
500 to 1000 ft
800 to 1500m
200 to 500 ft
< 800m
< 200 ft
Symbols :   Thunderstorms  Fog  Heavy snow  Heavy precipitations  Wind > 20 kt






- Airport Elevation : 13 ft
- IATA code : JFK


KJFK - John F Kennedy International

CURRENT METAR :
  • 151451Z 26017G25KT 10SM FEW035 BKN065 BKN250 08/02 A2977 RMK AO2 SLP080 VIRGA SE T00780017 51026 $

EXPIRED METARs :
  • 151351Z 27018G23KT 10SM FEW030 BKN055 BKN250 07/01 A2975 RMK AO2 SLP073 T00720011 $
  • 151251Z 26017G22KT 10SM FEW030 BKN050 BKN250 07/02 A2972 RMK AO2 SLP064 T00670017 $
  • 151151Z 26016G24KT 10SM BKN060 BKN200 BKN250 06/01 A2969 RMK AO2 PK WND 26028/1053 SLP054 70005 T00610011 10067 20056 53039 $

TAF KJFK
Valid from the 15 at 14:00 until the 16 at 18:00 UTC


151426Z 1514/1618 27024G34KT P6SM BKN045
FM152200 28020G28KT P6SM SCT045 SCT250
FM160200 29017G23KT P6SM FEW250
FM160600 29012KT P6SM BKN250
FM160800 29008KT P6SM BKN150
FM161100 VRB05KT P6SM BKN050
FM161700 20005KT 5SM -SN SCT015 BKN025



MET'MAP, your aeronautical weather chart ! - Copyright ORBIFLY December 2007 - Disclaimer

ORBIFLY MET'MAP TEAM :

Programming & Development : Alexandra Zaïnal
Concept & original design : Baudouin d'Aumeries
Assistance for programming : Marc-Olivier Méhu
Technical & hardware support : Manuel Goepfert

Contact : metmap@orbifly.com




SOURCES & CREDITS :

   NOAA       Earth
Advisory